Time;durP1;ratioP1;P1;durP2;ratioP2;P2;SDS_P1;SDS_P2;PMS_P1;PMS_P2;Temp;Humidity;BMP_temperature;BMP_pressure;BME280_temperature;BME280_humidity;BME280_pressure;Samples;Min_cycle;Max_cycle;Signal;HPM_P1;HPM_P2
2022/03/04 00:00:16;;;;;;;25.15;16.90;;;;;;;0.65;100.00;98993.34;1660296;86;21295;-76
2022/03/04 00:03:20;;;;;;;22.37;15.63;;;;;;;0.64;100.00;98991.66;1660495;86;21358;-76
2022/03/04 00:06:24;;;;;;;27.90;19.73;;;;;;;0.63;100.00;98996.69;1660370;86;21282;-83
2022/03/04 00:09:29;;;;;;;31.80;22.30;;;;;;;0.63;100.00;98994.00;1660309;86;21306;-83
2022/03/04 00:12:27;;;;;;;31.75;19.90;;;;;;;0.59;100.00;98999.31;1660351;86;21338;-76
2022/03/04 00:15:31;;;;;;;29.27;19.73;;;;;;;0.62;100.00;98995.50;1660419;86;21286;-76
2022/03/04 00:18:36;;;;;;;23.00;16.07;;;;;;;0.61;100.00;99000.51;1661121;86;21299;-78
2022/03/04 00:21:55;;;;;;;22.02;15.35;;;;;;;0.58;100.00;98988.20;1660932;84;21322;-76
2022/03/04 00:24:59;;;;;;;20.85;14.40;;;;;;;0.58;100.00;98990.05;1669686;85;21311;-83
2022/03/04 00:28:05;;;;;;;15.05;11.83;;;;;;;0.56;100.00;98992.02;1681501;85;21365;-77
2022/03/04 00:31:11;;;;;;;17.62;11.70;;;;;;;0.55;100.00;98991.18;1682506;85;21339;-76
2022/03/04 00:34:17;;;;;;;17.95;12.50;;;;;;;0.53;100.00;98986.45;1682552;85;21295;-76
2022/03/04 00:37:21;;;;;;;18.27;12.05;;;;;;;0.53;100.00;98982.91;1681745;85;21881;-76
2022/03/04 00:40:25;;;;;;;16.37;12.37;;;;;;;0.51;100.00;98979.84;1682470;85;21315;-84
2022/03/04 00:43:30;;;;;;;15.38;11.45;;;;;;;0.49;100.00;98987.73;1681150;85;21864;-83
2022/03/04 00:46:35;;;;;;;14.63;10.93;;;;;;;0.49;100.00;98988.58;1682417;85;21926;-76
2022/03/04 00:49:41;;;;;;;17.62;12.03;;;;;;;0.48;100.00;98993.61;1681131;85;21412;-76
2022/03/04 00:52:46;;;;;;;16.65;12.05;;;;;;;0.48;100.00;98990.08;1681090;85;21341;-76
2022/03/04 00:55:50;;;;;;;15.75;11.55;;;;;;;0.46;100.00;98989.35;1681110;85;21362;-82
2022/03/04 00:58:54;;;;;;;18.57;11.57;;;;;;;0.46;100.00;98990.70;1681152;84;21356;-82
2022/03/04 01:01:58;;;;;;;15.43;11.65;;;;;;;0.45;100.00;98994.39;1682132;85;21387;-83
2022/03/04 01:05:04;;;;;;;16.65;12.13;;;;;;;0.44;100.00;98992.20;1667392;85;21343;-82
2022/03/04 01:08:08;;;;;;;16.35;11.35;;;;;;;0.44;100.00;98995.39;1681457;85;21386;-77
2022/03/04 01:11:13;;;;;;;17.65;12.30;;;;;;;0.44;100.00;98992.70;1682418;85;21287;-80
2022/03/04 01:14:18;;;;;;;18.65;12.80;;;;;;;0.43;100.00;99004.46;1667059;85;21287;-76
2022/03/04 01:17:24;;;;;;;17.87;11.95;;;;;;;0.40;100.00;98993.97;1667258;85;21943;-83
2022/03/04 01:20:30;;;;;;;16.30;11.75;;;;;;;0.39;100.00;98994.97;1667026;85;21824;-83
2022/03/04 01:23:36;;;;;;;17.20;11.50;;;;;;;0.38;100.00;98985.21;1667180;85;21275;-83
2022/03/04 01:26:40;;;;;;;18.30;12.58;;;;;;;0.36;100.00;98989.38;1662694;85;21321;-83
2022/03/04 01:29:45;;;;;;;15.72;11.93;;;;;;;0.36;100.00;98996.09;1668553;86;21301;-76
2022/03/04 01:32:49;;;;;;;17.65;11.70;;;;;;;0.36;100.00;98995.25;1668535;86;21369;-76
2022/03/04 01:35:54;;;;;;;18.07;12.70;;;;;;;0.33;100.00;98995.53;1662456;86;21297;-76
2022/03/04 01:38:58;;;;;;;15.32;11.78;;;;;;;0.32;100.00;99004.59;1662346;85;21354;-76
2022/03/04 01:42:03;;;;;;;19.30;13.05;;;;;;;0.29;100.00;99004.40;1669119;86;21317;-76
2022/03/04 01:45:07;;;;;;;23.10;13.55;;;;;;;0.29;100.00;99006.25;1662404;85;21342;-83
2022/03/04 01:48:13;;;;;;;18.25;12.40;;;;;;;0.29;100.00;99008.94;1668553;86;21902;-83
2022/03/04 01:51:17;;;;;;;18.37;12.68;;;;;;;0.27;100.00;99008.21;1669458;86;21297;-84
2022/03/04 01:54:22;;;;;;;15.48;11.10;;;;;;;0.24;100.00;99007.52;1662656;86;21301;-83
2022/03/04 01:57:27;;;;;;;21.17;13.80;;;;;;;0.21;100.00;99002.41;1669496;86;21825;-83
2022/03/04 02:00:31;;;;;;;17.52;13.15;;;;;;;0.19;100.00;98999.53;1662558;86;21313;-83
2022/03/04 02:03:36;;;;;;;19.87;15.20;;;;;;;0.15;100.00;98994.08;1669499;86;21333;-83
2022/03/04 02:06:41;;;;;;;22.42;14.80;;;;;;;0.10;100.00;98995.84;1669261;86;21386;-76
2022/03/04 02:09:47;;;;;;;23.52;16.25;;;;;;;0.07;100.00;99003.34;1668797;86;21294;-76
2022/03/04 02:12:53;;;;;;;20.95;15.60;;;;;;;0.04;100.00;99002.27;1668577;86;21326;-82
2022/03/04 02:15:58;;;;;;;23.45;15.95;;;;;;;0.02;100.00;99002.42;1662584;86;21298;-82
2022/03/04 02:19:01;;;;;;;22.10;16.35;;;;;;;0.02;100.00;99006.45;1669392;86;21326;-82
2022/03/04 02:22:08;;;;;;;23.55;16.97;;;;;;;0.03;100.00;98999.23;1662560;86;21357;-76
2022/03/04 02:25:13;;;;;;;25.60;16.70;;;;;;;0.04;100.00;98984.79;1669573;86;21338;-83
2022/03/04 02:28:17;;;;;;;27.67;16.85;;;;;;;0.05;100.00;99006.18;1660355;85;21354;-75
2022/03/04 02:31:23;;;;;;;27.17;17.17;;;;;;;0.09;100.00;99009.41;1660287;86;21291;-83
2022/03/04 02:34:29;;;;;;;25.52;16.32;;;;;;;0.12;100.00;99014.02;1660825;86;21282;-76
2022/03/04 02:37:35;;;;;;;24.32;15.38;;;;;;;0.14;100.00;99009.37;1660881;86;21330;-83
2022/03/04 02:40:40;;;;;;;25.30;15.72;;;;;;;0.16;100.00;99012.75;1660670;86;21321;-83
2022/03/04 02:43:45;;;;;;;23.38;14.28;;;;;;;0.20;100.00;99015.52;1660314;86;21844;-75
2022/03/04 02:46:49;;;;;;;23.40;15.28;;;;;;;0.22;100.00;99011.33;1659922;86;21330;-82
2022/03/04 02:49:53;;;;;;;24.52;16.35;;;;;;;0.23;100.00;99011.67;1660810;86;21894;-76
2022/03/04 02:52:59;;;;;;;23.02;15.58;;;;;;;0.24;100.00;99009.36;1660852;86;21397;-76
2022/03/04 02:56:04;;;;;;;21.77;14.80;;;;;;;0.27;100.00;99012.25;1660762;86;21339;-76
2022/03/04 02:59:09;;;;;;;20.75;15.10;;;;;;;0.27;100.00;99002.33;1660933;86;21290;-76
2022/03/04 03:02:13;;;;;;;22.20;14.80;;;;;;;0.28;100.00;98997.30;1660922;86;21357;-83
2022/03/04 03:05:18;;;;;;;22.35;15.25;;;;;;;0.31;100.00;99005.59;1660594;86;21294;-83
2022/03/04 03:08:23;;;;;;;19.82;14.38;;;;;;;0.31;100.00;98998.87;1660395;86;21317;-84
2022/03/04 03:11:29;;;;;;;23.20;14.53;;;;;;;0.31;100.00;98999.71;1660705;86;21354;-83
2022/03/04 03:14:35;;;;;;;19.05;13.10;;;;;;;0.32;100.00;98995.18;1660285;86;21339;-83
2022/03/04 03:17:39;;;;;;;23.30;14.73;;;;;;;0.32;100.00;98993.83;1659030;86;21914;-76
2022/03/04 03:20:44;;;;;;;22.48;14.65;;;;;;;0.33;100.00;99003.59;1659054;86;21318;-76
2022/03/04 03:23:49;;;;;;;23.50;14.40;;;;;;;0.33;100.00;99025.11;1659008;86;21337;-76
2022/03/04 03:26:53;;;;;;;18.87;13.18;;;;;;;0.35;100.00;99011.05;1660850;86;21310;-83
2022/03/04 03:29:59;;;;;;;19.48;14.10;;;;;;;0.35;100.00;99007.86;1660794;86;21327;-83
2022/03/04 03:33:04;;;;;;;17.87;12.53;;;;;;;0.35;100.00;99002.47;1659354;86;21374;-76
2022/03/04 03:36:09;;;;;;;17.98;12.60;;;;;;;0.36;100.00;99004.66;1660273;86;21295;-83
2022/03/04 03:39:14;;;;;;;20.65;13.35;;;;;;;0.36;100.00;99010.89;1660294;86;21303;-83
2022/03/04 03:42:19;;;;;;;20.57;12.47;;;;;;;0.36;100.00;99013.58;1660260;86;21303;-77
2022/03/04 03:45:23;;;;;;;15.88;11.35;;;;;;;0.34;100.00;99016.92;1660329;86;21294;-83
2022/03/04 03:48:28;;;;;;;18.07;12.13;;;;;;;0.35;100.00;99017.77;1659073;86;21337;-76
2022/03/04 03:51:34;;;;;;;17.98;11.80;;;;;;;0.35;100.00;99026.69;1659514;86;21326;-82
2022/03/04 03:54:40;;;;;;;18.50;11.25;;;;;;;0.35;100.00;99019.11;1660874;86;21282;-75
2022/03/04 03:57:44;;;;;;;16.77;11.55;;;;;;;0.35;100.00;99017.27;1659975;86;21343;-75
2022/03/04 04:00:51;;;;;;;16.67;11.12;;;;;;;0.34;100.00;99020.95;1660135;85;21384;-83
2022/03/04 04:03:58;;;;;;;19.75;12.15;;;;;;;0.36;100.00;99027.53;1660532;86;21350;-75
2022/03/04 04:07:02;;;;;;;20.60;12.78;;;;;;;0.35;100.00;99023.14;1659811;86;21390;-83
2022/03/04 04:10:08;;;;;;;17.92;12.28;;;;;;;0.34;100.00;99034.41;1660280;86;21302;-76
2022/03/04 04:13:13;;;;;;;19.62;12.65;;;;;;;0.35;100.00;99025.84;1659485;86;21318;-77
2022/03/04 04:16:17;;;;;;;17.32;11.28;;;;;;;0.35;100.00;99032.56;1660360;86;21294;-83
2022/03/04 04:19:23;;;;;;;16.50;12.18;;;;;;;0.34;100.00;99026.34;1660228;86;21920;-83
2022/03/04 04:22:28;;;;;;;15.98;10.72;;;;;;;0.34;100.00;99034.41;1659209;86;21309;-76
2022/03/04 04:25:33;;;;;;;20.82;12.37;;;;;;;0.36;100.00;99049.05;1659162;86;21330;-76
2022/03/04 04:28:37;;;;;;;17.73;12.00;;;;;;;0.34;100.00;99051.89;1660847;85;21305;-83
2022/03/04 04:31:42;;;;;;;18.10;12.03;;;;;;;0.35;100.00;99048.70;1681719;85;21350;-83
2022/03/04 04:34:48;;;;;;;19.37;11.93;;;;;;;0.36;100.00;99059.81;1682363;85;21295;-83
2022/03/04 04:37:53;;;;;;;18.67;13.18;;;;;;;0.35;100.00;99060.30;1681317;85;21382;-82
2022/03/04 04:40:57;;;;;;;17.77;11.60;;;;;;;0.36;100.00;99073.26;1682214;85;21848;-76
2022/03/04 04:44:03;;;;;;;20.70;12.30;;;;;;;0.35;100.00;99041.98;1681387;85;21371;-83
2022/03/04 04:47:08;;;;;;;24.30;12.73;;;;;;;0.34;100.00;99075.25;1681842;85;21350;-76
2022/03/04 04:50:13;;;;;;;18.57;12.45;;;;;;;0.34;100.00;99076.10;1682268;85;21291;-83
2022/03/04 04:53:18;;;;;;;20.68;13.00;;;;;;;0.33;100.00;99074.88;1681135;85;21844;-83
2022/03/04 04:56:22;;;;;;;21.15;13.43;;;;;;;0.34;100.00;99078.79;1682232;85;21884;-82
2022/03/04 04:59:27;;;;;;;23.22;13.85;;;;;;;0.34;100.00;99082.83;1681164;85;21864;-83
2022/03/04 05:02:32;;;;;;;19.40;10.95;;;;;;;0.35;100.00;99073.76;1681136;85;21891;-76
2022/03/04 05:05:37;;;;;;;17.07;11.30;;;;;;;0.36;100.00;99084.02;1681005;85;21322;-82
2022/03/04 05:08:41;;;;;;;17.67;11.78;;;;;;;0.38;100.00;99088.78;1667102;85;21337;-75
2022/03/04 05:11:47;;;;;;;17.32;11.22;;;;;;;0.40;100.00;99073.33;1667055;85;21883;-75
2022/03/04 05:14:51;;;;;;;19.90;11.05;;;;;;;0.42;100.00;99096.89;1681313;85;21860;-82
2022/03/04 05:17:57;;;;;;;14.85;10.82;;;;;;;0.43;100.00;99099.97;1667035;85;21339;-82
2022/03/04 05:21:03;;;;;;;17.62;11.68;;;;;;;0.44;100.00;99095.77;1682277;85;21340;-82
2022/03/04 05:24:08;;;;;;;16.73;10.95;;;;;;;0.48;100.00;99092.31;1667011;85;21287;-75
2022/03/04 05:27:13;;;;;;;15.05;9.40;;;;;;;0.50;100.00;99088.97;1681810;85;21326;-75
2022/03/04 05:30:19;;;;;;;16.00;9.58;;;;;;;0.52;100.00;99091.05;1666257;85;21291;-82
2022/03/04 05:33:23;;;;;;;14.25;9.83;;;;;;;0.55;100.00;99098.81;1682544;85;21335;-75
2022/03/04 05:36:27;;;;;;;14.30;9.00;;;;;;;0.59;100.00;99105.61;1682498;85;21343;-76
2022/03/04 05:39:31;;;;;;;15.03;10.18;;;;;;;0.65;100.00;99105.03;1682436;85;21889;-82
2022/03/04 05:42:36;;;;;;;16.25;10.13;;;;;;;0.68;100.00;99088.61;1667057;85;21315;-83
2022/03/04 05:45:40;;;;;;;14.07;9.48;;;;;;;0.74;100.00;99100.64;1682292;85;21868;-82
2022/03/04 05:48:44;;;;;;;14.93;9.08;;;;;;;0.78;100.00;99109.28;1666938;85;21341;-76
2022/03/04 05:51:49;;;;;;;15.95;9.75;;;;;;;0.83;100.00;99115.09;1682070;85;21371;-75
2022/03/04 05:54:54;;;;;;;13.90;9.55;;;;;;;0.85;100.00;99125.20;1682293;85;21311;-76
2022/03/04 05:57:59;;;;;;;17.15;8.80;;;;;;;0.88;100.00;99112.81;1681245;85;21333;-82
2022/03/04 06:01:03;;;;;;;14.60;9.38;;;;;;;0.91;99.99;99131.38;1668262;85;21295;-76
2022/03/04 06:04:09;;;;;;;14.93;9.25;;;;;;;0.93;100.00;99117.27;1649624;85;21342;-76
2022/03/04 06:07:13;;;;;;;16.25;8.83;;;;;;;0.92;99.70;99136.61;1681911;85;21386;-81
2022/03/04 06:10:18;;;;;;;15.08;9.15;;;;;;;0.93;99.93;99141.50;1649666;85;21291;-81
2022/03/04 06:13:23;;;;;;;19.20;10.40;;;;;;;0.91;99.94;99149.73;1649699;85;21338;-83
2022/03/04 06:16:28;;;;;;;16.15;10.88;;;;;;;0.91;100.00;99154.27;1666811;85;21283;-76
2022/03/04 06:19:32;;;;;;;18.87;12.05;;;;;;;0.91;100.00;99163.69;1664536;85;21307;-82
2022/03/04 06:22:38;;;;;;;19.35;11.68;;;;;;;0.92;100.00;99163.53;1665937;85;21803;-75
2022/03/04 06:25:43;;;;;;;18.45;11.70;;;;;;;0.91;100.00;99159.66;1681091;85;21319;-82
2022/03/04 06:28:47;;;;;;;17.17;11.50;;;;;;;0.91;100.00;99163.19;1679462;84;21348;-76
2022/03/04 06:31:54;;;;;;;18.20;11.40;;;;;;;0.92;100.00;99160.00;1670134;85;21204;-76
2022/03/04 06:35:01;;;;;;;18.82;11.75;;;;;;;0.93;100.00;99161.69;1658993;86;21315;-76
2022/03/04 06:38:07;;;;;;;17.37;11.03;;;;;;;0.94;100.00;99167.42;1654687;84;21192;-75
2022/03/04 06:41:14;;;;;;;19.07;11.28;;;;;;;0.94;100.00;99162.91;1699792;84;21204;-80
2022/03/04 06:44:19;;;;;;;19.05;12.15;;;;;;;0.98;100.00;99160.77;1703540;84;21253;-75
2022/03/04 06:47:24;;;;;;;19.65;12.30;;;;;;;0.99;100.00;99143.64;1703875;84;21240;-75
2022/03/04 06:50:30;;;;;;;20.97;11.88;;;;;;;1.04;100.00;99147.25;1704572;84;21770;-78
2022/03/04 06:53:35;;;;;;;17.85;11.65;;;;;;;1.08;100.00;99146.78;1703734;84;21881;-76
2022/03/04 06:56:42;;;;;;;17.95;11.18;;;;;;;1.10;100.00;99144.81;1704060;84;21212;-76
2022/03/04 06:59:48;;;;;;;22.52;13.60;;;;;;;1.13;100.00;99147.23;1704077;84;21653;-82
2022/03/04 07:02:54;;;;;;;18.30;12.20;;;;;;;1.15;100.00;99146.58;1703374;84;21268;-76
2022/03/04 07:06:00;;;;;;;22.07;13.78;;;;;;;1.18;100.00;99145.45;1704404;84;21739;-83
2022/03/04 07:09:04;;;;;;;21.95;13.72;;;;;;;1.24;100.00;99144.36;1703670;84;21892;-76
2022/03/04 07:12:10;;;;;;;20.57;13.58;;;;;;;1.27;100.00;99148.59;1692960;84;21776;-76
2022/03/04 07:15:16;;;;;;;22.40;13.83;;;;;;;1.31;100.00;99147.80;1694340;84;21189;-83
2022/03/04 07:18:23;;;;;;;26.30;14.55;;;;;;;1.36;100.00;99148.22;1694390;84;21264;-83
2022/03/04 07:21:29;;;;;;;19.45;12.95;;;;;;;1.38;100.00;99138.16;1694344;84;21216;-83
2022/03/04 07:24:35;;;;;;;22.55;13.78;;;;;;;1.41;100.00;99151.31;1693365;84;21248;-76
2022/03/04 07:27:43;;;;;;;20.32;13.10;;;;;;;1.42;100.00;99154.39;1693453;84;21255;-83
2022/03/04 07:30:49;;;;;;;17.82;11.20;;;;;;;1.44;100.00;99155.92;1693827;84;21256;-82
2022/03/04 07:33:57;;;;;;;27.80;16.37;;;;;;;1.49;99.94;99155.48;1692178;84;21216;-75
2022/03/04 07:37:03;;;;;;;18.80;13.45;;;;;;;1.59;99.61;99159.50;1693105;84;21193;-83
2022/03/04 07:40:07;;;;;;;13.88;10.13;;;;;;;1.65;98.52;99161.13;1693940;84;21738;-75
2022/03/04 07:43:13;;;;;;;20.95;13.25;;;;;;;1.73;97.52;99135.59;1693149;84;21714;-82
2022/03/04 07:46:20;;;;;;;20.52;13.15;;;;;;;1.79;95.86;99155.25;1693998;84;21208;-76
2022/03/04 07:49:27;;;;;;;15.32;11.08;;;;;;;1.86;96.17;99162.73;1694413;84;21792;-76
2022/03/04 07:52:33;;;;;;;16.23;12.00;;;;;;;1.92;96.42;99169.72;1692989;84;21274;-74
2022/03/04 07:55:41;;;;;;;13.90;10.40;;;;;;;1.99;95.23;99169.98;1692645;84;21232;-76
2022/03/04 07:58:47;;;;;;;16.05;12.25;;;;;;;2.03;93.70;99164.65;1672899;84;21191;-83
2022/03/04 08:01:52;;;;;;;18.02;12.23;;;;;;;2.05;94.01;99166.69;1664811;86;21855;-76
2022/03/04 08:04:59;;;;;;;16.80;11.45;;;;;;;2.05;93.51;99171.58;1664497;86;21235;-82
2022/03/04 08:08:05;;;;;;;16.50;11.08;;;;;;;2.11;93.95;99175.52;1654197;86;21768;-76
2022/03/04 08:11:11;;;;;;;18.70;11.88;;;;;;;2.17;93.82;99174.09;1636210;87;21188;-76
2022/03/04 08:14:17;;;;;;;16.40;10.68;;;;;;;2.23;93.92;99181.06;1665190;86;21211;-80
2022/03/04 08:17:23;;;;;;;16.50;11.05;;;;;;;2.27;94.08;99182.47;1636318;87;22164;-83
2022/03/04 08:20:31;;;;;;;14.83;10.95;;;;;;;2.32;93.06;99177.13;1664057;86;21191;-76
2022/03/04 08:23:37;;;;;;;12.95;9.18;;;;;;;2.37;93.08;99176.17;1636388;87;21269;-83
2022/03/04 08:26:45;;;;;;;13.40;9.83;;;;;;;2.45;91.58;99185.71;1637110;87;21246;-83
2022/03/04 08:29:50;;;;;;;13.65;8.83;;;;;;;2.50;91.40;99189.64;1609842;89;21829;-76
2022/03/04 08:32:56;;;;;;;15.15;10.00;;;;;;;2.51;90.12;99187.80;1637299;87;21262;-83
2022/03/04 08:36:01;;;;;;;12.10;9.10;;;;;;;2.51;89.93;99199.94;1611958;89;21609;-83
2022/03/04 08:39:07;;;;;;;14.20;9.40;;;;;;;2.56;91.08;99194.43;1641044;84;21306;-76
2022/03/04 08:42:12;;;;;;;15.58;10.23;;;;;;;2.62;90.58;99198.87;1668145;86;21237;-76
2022/03/04 08:45:18;;;;;;;15.88;10.05;;;;;;;2.65;88.86;99200.77;1668415;85;21810;-76
2022/03/04 08:48:24;;;;;;;9.05;7.37;;;;;;;2.71;88.53;99202.00;1662912;86;22109;-76
2022/03/04 08:51:29;;;;;;;15.53;9.45;;;;;;;2.73;87.97;99194.11;1667008;84;21744;-76
2022/03/04 08:54:35;;;;;;;14.40;9.28;;;;;;;2.73;88.03;99203.56;1663786;86;21189;-76
2022/03/04 08:57:39;;;;;;;17.10;9.60;;;;;;;2.77;88.53;99204.08;1663975;86;21220;-76
2022/03/04 09:00:45;;;;;;;12.85;8.63;;;;;;;2.77;89.30;99202.23;1671481;84;21800;-83
2022/03/04 09:03:52;;;;;;;12.78;8.55;;;;;;;2.77;89.15;99199.52;1661886;86;21227;-76
2022/03/04 09:06:57;;;;;;;14.03;9.03;;;;;;;2.74;88.62;99209.30;1661795;86;21741;-82
2022/03/04 09:10:04;;;;;;;14.53;9.73;;;;;;;2.71;88.68;99209.59;1678623;84;21196;-76
2022/03/04 09:13:10;;;;;;;13.90;9.70;;;;;;;2.74;90.10;99199.85;1697542;84;21897;-76
2022/03/04 09:16:18;;;;;;;12.80;8.73;;;;;;;2.84;90.73;99210.58;1697343;83;21203;-76
2022/03/04 09:19:24;;;;;;;14.05;8.98;;;;;;;2.93;90.43;99215.56;1697264;84;21224;-84
2022/03/04 09:22:32;;;;;;;12.45;9.25;;;;;;;2.92;89.32;99204.42;1697102;84;21765;-75
2022/03/04 09:25:38;;;;;;;13.48;8.95;;;;;;;2.86;89.74;99210.42;1698446;84;21251;-82
2022/03/04 09:28:42;;;;;;;13.32;9.13;;;;;;;2.87;89.94;99203.53;1699053;84;21225;-75
2022/03/04 09:31:47;;;;;;;10.38;7.78;;;;;;;2.88;89.37;99203.03;1698315;84;21227;-81
2022/03/04 09:34:56;;;;;;;13.00;8.43;;;;;;;2.87;88.94;99206.70;1692711;84;21241;-75
2022/03/04 09:38:01;;;;;;;13.88;8.68;;;;;;;2.86;89.16;99207.72;1669869;86;21225;-75
2022/03/04 09:41:07;;;;;;;11.83;8.40;;;;;;;2.79;88.38;99196.69;1669836;86;21202;-82
2022/03/04 09:44:12;;;;;;;12.85;9.05;;;;;;;2.78;88.86;99203.95;1670028;86;21202;-75
2022/03/04 09:47:17;;;;;;;11.80;8.33;;;;;;;2.79;89.23;99197.53;1669874;86;21225;-75
2022/03/04 09:50:24;;;;;;;12.15;9.23;;;;;;;2.83;89.58;99193.19;1608518;89;22124;-75
2022/03/04 09:53:29;;;;;;;17.10;9.05;;;;;;;2.89;88.50;99197.97;1608561;89;22295;-75
2022/03/04 09:56:35;;;;;;;15.78;9.10;;;;;;;2.93;89.61;99196.66;1608755;89;21232;-75
2022/03/04 09:59:39;;;;;;;12.23;8.58;;;;;;;2.88;89.02;99195.77;1609061;89;21204;-82
2022/03/04 10:02:45;;;;;;;13.80;8.95;;;;;;;2.81;88.98;99203.63;1588521;87;21231;-82
2022/03/04 11:03:35;;;;;;;13.40;9.00;;;;;;;2.71;90.79;99183.95;1635533;86;21774;-75
2022/03/04 11:06:45;;;;;;;12.23;8.53;;;;;;;2.71;90.65;99183.95;1671123;85;21215;-82
2022/03/04 11:09:50;;;;;;;14.20;9.73;;;;;;;2.80;90.84;99183.53;1679954;85;21771;-75
2022/03/04 11:12:56;;;;;;;15.95;10.00;;;;;;;2.82;90.72;99181.51;1679955;85;21265;-82
2022/03/04 11:16:05;;;;;;;13.55;9.60;;;;;;;2.81;89.82;99186.06;1647968;84;21786;-75
2022/03/04 11:19:11;;;;;;;13.32;9.13;;;;;;;2.82;90.27;99186.91;1629497;88;21244;-82
2022/03/04 11:22:32;;;;;;;16.07;9.90;;;;;;;2.81;90.20;99182.02;1629085;88;21810;-82
2022/03/04 11:25:46;;;;;;;16.12;9.53;;;;;;;2.83;90.59;99185.09;1630958;88;21201;-82
2022/03/04 11:28:59;;;;;;;13.95;10.08;;;;;;;2.85;90.98;99179.02;1631776;88;21261;-82
2022/03/04 11:32:07;;;;;;;15.60;9.25;;;;;;;2.89;91.17;99182.60;1633080;88;21274;-75
2022/03/04 11:35:14;;;;;;;14.00;9.90;;;;;;;2.97;91.12;99181.84;1611592;88;21222;-82
2022/03/04 11:38:23;;;;;;;15.08;9.65;;;;;;;3.09;90.68;99180.58;1623081;88;21541;-82
2022/03/04 11:41:39;;;;;;;15.93;8.98;;;;;;;3.21;91.03;99179.34;1624306;88;21789;-82
2022/03/04 11:45:00;;;;;;;13.32;9.88;;;;;;;3.34;90.50;99178.94;1624286;88;21191;-76
2022/03/04 11:48:12;;;;;;;17.67;10.60;;;;;;;3.38;89.35;99169.98;1623566;88;21266;-82
2022/03/04 11:51:24;;;;;;;12.68;9.15;;;;;;;3.35;89.04;99190.59;1624567;88;21837;-76
2022/03/04 11:54:33;;;;;;;14.03;10.13;;;;;;;3.33;88.71;99187.52;1624985;88;21193;-75
2022/03/04 11:57:48;;;;;;;14.35;10.00;;;;;;;3.27;87.98;99181.41;1623335;88;21909;-76
2022/03/04 12:00:56;;;;;;;15.38;10.68;;;;;;;3.25;88.24;99187.98;1616371;88;21256;-76
2022/03/04 12:04:23;;;;;;;13.83;8.83;;;;;;;3.27;88.55;99190.86;1625443;86;21251;-82
2022/03/04 12:07:34;;;;;;;15.23;10.13;;;;;;;3.29;88.69;99197.45;1601654;88;21241;-82
2022/03/04 12:10:52;;;;;;;18.20;10.70;;;;;;;3.27;88.15;99194.07;1584708;89;21201;-75
2022/03/04 12:13:58;;;;;;;15.72;9.08;;;;;;;3.22;87.82;99189.64;1596785;89;21877;-82
2022/03/04 12:17:06;;;;;;;16.27;9.85;;;;;;;3.22;87.86;99197.24;1574690;89;21244;-75
2022/03/04 12:20:13;;;;;;;16.55;9.13;;;;;;;3.22;87.50;99199.10;1600098;87;21297;-76
2022/03/04 12:23:20;;;;;;;12.37;8.73;;;;;;;3.22;87.49;99193.70;1600192;87;21838;-82
2022/03/04 12:26:27;;;;;;;15.95;9.40;;;;;;;3.20;87.41;99201.97;1600423;87;21209;-82
2022/03/04 12:29:53;;;;;;;14.18;10.03;;;;;;;3.24;88.02;99196.57;1599462;89;21209;-75
2022/03/04 12:33:01;;;;;;;16.48;9.73;;;;;;;3.31;87.80;99198.16;1600069;87;21182;-75
2022/03/04 12:36:08;;;;;;;13.30;8.93;;;;;;;3.33;87.82;99196.98;1634239;85;21192;-82
2022/03/04 12:39:13;;;;;;;14.63;9.03;;;;;;;3.33;87.22;99192.08;1648012;87;21742;-82
2022/03/04 12:42:20;;;;;;;18.12;9.88;;;;;;;3.30;87.04;99187.86;1625385;85;21216;-83
2022/03/04 12:45:24;;;;;;;16.23;9.70;;;;;;;3.28;86.52;99190.36;1622750;87;21200;-75
2022/03/04 12:48:32;;;;;;;14.60;9.90;;;;;;;3.23;87.06;99192.69;1647786;87;21224;-82
2022/03/04 12:51:49;;;;;;;15.70;10.13;;;;;;;3.20;87.79;99192.52;1631473;87;21191;-82
2022/03/04 12:54:54;;;;;;;16.60;10.20;;;;;;;3.18;87.83;99185.55;1621912;88;21747;-76
2022/03/04 12:58:00;;;;;;;14.55;9.45;;;;;;;3.13;87.97;99188.72;1622335;87;21540;-82
2022/03/04 13:01:08;;;;;;;14.40;9.70;;;;;;;3.11;88.52;99190.74;1639158;87;21584;-75
2022/03/04 13:04:14;;;;;;;19.85;10.90;;;;;;;3.12;88.96;99188.89;1641463;86;21244;-77
2022/03/04 13:07:19;;;;;;;16.85;11.30;;;;;;;3.11;89.04;99186.69;1622171;86;21197;-75
2022/03/04 13:10:25;;;;;;;16.75;9.63;;;;;;;3.10;88.85;99187.67;1641609;87;21222;-75
2022/03/04 13:13:30;;;;;;;19.60;11.20;;;;;;;3.10;89.49;99191.72;1641151;87;21190;-82
2022/03/04 13:16:38;;;;;;;18.65;10.90;;;;;;;3.07;89.25;99195.60;1641250;87;21234;-82
2022/03/04 13:19:44;;;;;;;19.23;11.53;;;;;;;3.05;89.44;99190.84;1641906;87;21177;-82
2022/03/04 13:22:48;;;;;;;18.12;10.72;;;;;;;3.03;89.31;99189.31;1641224;87;21771;-82
2022/03/04 13:25:54;;;;;;;17.10;10.75;;;;;;;3.01;89.07;99194.00;1641600;87;21226;-82
2022/03/04 13:29:06;;;;;;;17.90;10.80;;;;;;;2.99;88.67;99194.17;1641691;87;21266;-81
2022/03/04 13:32:20;;;;;;;22.17;10.75;;;;;;;2.99;88.85;99197.38;1658779;86;21265;-75
2022/03/04 13:35:28;;;;;;;24.92;11.93;;;;;;;3.00;88.81;99186.91;1650967;86;21236;-76
2022/03/04 13:38:33;;;;;;;18.02;11.65;;;;;;;3.01;88.68;99200.76;1641620;87;21186;-76
2022/03/04 13:41:39;;;;;;;19.00;11.50;;;;;;;3.01;88.80;99207.52;1640135;86;21217;-83
2022/03/04 13:45:05;;;;;;;19.23;12.33;;;;;;;2.99;89.04;99208.19;1637705;87;21218;-83
2022/03/04 13:48:12;;;;;;;20.48;12.15;;;;;;;2.99;89.11;99210.88;1636723;87;21257;-76
2022/03/04 13:51:22;;;;;;;17.48;10.38;;;;;;;2.96;89.61;99212.53;1637931;87;21230;-82
2022/03/04 13:54:27;;;;;;;21.25;12.30;;;;;;;2.96;90.16;99207.98;1637902;87;21210;-82
2022/03/04 13:57:42;;;;;;;20.77;12.55;;;;;;;2.95;89.91;99197.34;1638105;87;21241;-79
2022/03/04 14:00:48;;;;;;;23.90;13.32;;;;;;;2.95;89.98;99225.70;1639059;87;21185;-83
2022/03/04 14:03:54;;;;;;;18.70;11.05;;;;;;;2.93;90.42;99224.52;1645528;87;21203;-83
2022/03/04 14:06:59;;;;;;;22.02;11.43;;;;;;;2.93;90.59;99220.46;1645288;87;21219;-76
2022/03/04 14:10:06;;;;;;;20.72;11.22;;;;;;;2.93;90.61;99224.52;1633456;87;21247;-83
2022/03/04 14:13:13;;;;;;;22.30;11.15;;;;;;;2.92;90.66;99227.38;1625795;87;21577;-83
2022/03/04 14:16:19;;;;;;;22.17;11.03;;;;;;;2.92;91.17;99232.78;1621397;88;21770;-82
2022/03/04 14:19:25;;;;;;;14.90;9.43;;;;;;;2.90;90.53;99230.72;1657356;86;21744;-82
2022/03/04 14:22:30;;;;;;;19.00;10.03;;;;;;;2.88;89.80;99230.03;1657452;86;21214;-83
2022/03/04 14:25:35;;;;;;;15.78;8.95;;;;;;;2.87;89.29;99235.06;1657553;86;21732;-83
2022/03/04 14:29:09;;;;;;;16.50;9.68;;;;;;;2.87;89.44;99231.02;1657624;86;21750;-75
2022/03/04 14:31:48;;;;;;;16.60;9.43;;;;;;;2.85;89.37;99231.17;1657781;86;21282;-76
2022/03/04 14:34:53;;;;;;;17.15;9.00;;;;;;;2.84;89.48;99239.45;1657269;86;21179;-76
2022/03/04 14:38:11;;;;;;;13.32;9.03;;;;;;;2.87;89.29;99233.72;1828824;76;22251;-76
2022/03/04 14:41:16;;;;;;;20.57;10.00;;;;;;;2.81;89.48;99241.94;1768576;80;21184;-83
2022/03/04 14:44:22;;;;;;;16.35;9.20;;;;;;;2.81;89.92;99233.83;1766324;80;21148;-76
2022/03/04 14:47:27;;;;;;;19.00;9.90;;;;;;;2.79;89.97;99236.70;1771532;79;21726;-80
2022/03/04 14:50:36;;;;;;;16.65;8.05;;;;;;;2.78;90.24;99234.16;1768195;80;21188;-83
2022/03/04 14:53:42;;;;;;;16.02;9.38;;;;;;;2.78;90.01;99247.66;1771603;80;21119;-83
2022/03/04 14:56:48;;;;;;;17.45;9.25;;;;;;;2.75;90.11;99244.75;1784150;80;21181;-83
2022/03/04 14:59:54;;;;;;;17.20;8.98;;;;;;;2.73;89.87;99238.67;1777604;80;21145;-76
2022/03/04 15:02:59;;;;;;;15.35;8.48;;;;;;;2.70;89.77;99243.01;1781154;80;21212;-75
2022/03/04 15:05:59;;;;;;;15.28;8.70;;;;;;;2.68;89.99;99232.88;1784808;80;21152;-75
2022/03/04 15:09:05;;;;;;;18.82;9.43;;;;;;;2.66;90.21;99242.96;1784772;80;21769;-78
2022/03/04 15:12:15;;;;;;;16.00;9.98;;;;;;;2.65;90.62;99243.12;1783175;80;21231;-76
2022/03/04 15:15:21;;;;;;;17.30;10.55;;;;;;;2.64;91.19;99247.67;1783202;80;21196;-84
2022/03/04 15:18:26;;;;;;;19.62;11.03;;;;;;;2.64;91.96;99249.03;1748510;82;21248;-76
2022/03/04 15:21:31;;;;;;;20.43;11.50;;;;;;;2.61;92.59;99249.31;1751529;82;21208;-84